Terminal Aerodrome Forecast
Issued by NWS

Home | Current Version | Previous Version | Graphics & Text | Print | Product List | Glossary On
Versions: 1 2 3 4 5 6 7 8 9 10 11 12 13 14 15 16 17 18
000
FTUS43 KGRB 230520
TAFAUW
TAF
KAUW 230520Z 2306/2406 14007KT P6SM BKN090
     FM231000 14010KT P6SM OVC070
     FM231600 15013G20KT P6SM OVC070
     FM232100 16013G20KT P6SM VCSH OVC040
     FM232300 15010G16KT P6SM -SHRA OVC035
     FM240200 15010G17KT 4SM -RA BR OVC020 WS020/20040KT=

USA.gov is the U.S. government's official web portal to all federal, state and local government web resources and services.